Terminal Aerodrome Forecast
Issued by NWS

Home | Current Version | Previous Version | Text Only | Print | Product List | Glossary On
Versions: 1 2 3 4 5 6 7 8 9 10 11 12 13 14 15
000
FTUS46 KLOX 260540
TAFPRB
TAF
KPRB 260540Z 2606/2706 17006KT P6SM VCSH SCT050 OVC100
     FM260800 VRB03KT 6SM -RA BR SCT025 OVC040
     FM261400 VRB03KT P6SM VCSH SCT025 BKN050
     FM261900 22008KT P6SM BKN050 BKN120
     FM270300 30008KT P6SM BKN050=

USA.gov is the U.S. government's official web portal to all federal, state and local government web resources and services.